Terminal Aerodrome Forecast
Issued by NWS

Home | Current Version | Previous Version | Text Only | Print | Product List | Glossary On
Versions: 1 2 3 4 5 6 7 8 9 10 11 12 13 14
236
FTUS45 KVEF 240539
TAFHND
TAF
KHND 240539Z 2406/2506 29007KT P6SM VCSH BKN050 BKN080
     FM241000 32007KT P6SM FEW040 SCT090
     FM241600 34007KT P6SM FEW050 SCT150=

USA.gov is the U.S. government's official web portal to all federal, state and local government web resources and services.